createdAt,value
2018-11-11T00:00:10.678Z,105.50
2018-11-11T00:02:39.297Z,104.80
2018-11-11T00:05:09.410Z,104.17
2018-11-11T00:07:37.941Z,103.30
2018-11-11T00:10:06.704Z,104.90
2018-11-11T00:12:35.544Z,105.80
2018-11-11T00:15:04.285Z,103.43
2018-11-11T00:17:32.935Z,98.67
2018-11-11T00:20:01.502Z,103.23
2018-11-11T00:22:30.079Z,101.17
2018-11-11T00:24:58.647Z,103.70
2018-11-11T00:27:27.191Z,108.40
2018-11-11T00:29:55.736Z,108.23
2018-11-11T00:32:24.351Z,106.07
2018-11-11T00:34:52.961Z,106.10
2018-11-11T00:37:21.661Z,105.13
2018-11-11T00:39:50.396Z,107.13
2018-11-11T00:42:19.081Z,102.07
2018-11-11T00:44:47.618Z,105.63
2018-11-11T00:47:16.170Z,104.43
2018-11-11T00:49:44.701Z,105.23
2018-11-11T00:52:13.274Z,106.10
2018-11-11T00:54:41.832Z,113.67
2018-11-11T00:57:11.410Z,108.27
2018-11-11T00:59:39.985Z,106.70
2018-11-11T01:02:08.555Z,108.73
2018-11-11T01:04:37.131Z,114.60
2018-11-11T01:07:06.147Z,110.23
2018-11-11T01:09:34.753Z,107.60
2018-11-11T01:12:03.325Z,113.80
2018-11-11T01:14:31.878Z,108.10
2018-11-11T01:17:07.290Z,109.27
2018-11-11T01:19:35.866Z,112.63
2018-11-11T01:22:04.470Z,109.77
2018-11-11T01:24:33.173Z,111.20
2018-11-11T01:27:01.748Z,114.63
2018-11-11T01:29:30.355Z,112.67
2018-11-11T01:31:58.956Z,111.43
2018-11-11T01:34:27.476Z,108.37
2018-11-11T01:36:55.994Z,106.50
2018-11-11T01:39:24.497Z,115.53
2018-11-11T01:41:53.027Z,111.33
2018-11-11T01:44:21.570Z,116.43
2018-11-11T01:46:50.130Z,107.77
2018-11-11T01:49:18.720Z,116.73
2018-11-11T01:51:47.269Z,113.20
2018-11-11T01:54:15.791Z,113.17
2018-11-11T01:56:44.340Z,113.60
2018-11-11T01:59:12.922Z,115.23
2018-11-11T02:01:41.477Z,111.50
2018-11-11T02:04:10.108Z,111.33
2018-11-11T02:06:38.641Z,114.07
2018-11-11T02:09:09.662Z,113.30
2018-11-11T02:11:38.270Z,109.73
2018-11-11T02:14:06.904Z,111.60
2018-11-11T02:16:35.728Z,113.50
2018-11-11T02:19:04.343Z,108.77
2018-11-11T02:21:32.944Z,119.53
2018-11-11T02:24:01.459Z,118.30
2018-11-11T02:26:30.023Z,116.00
2018-11-11T02:28:58.586Z,106.57
2018-11-11T02:31:27.288Z,104.80
2018-11-11T02:33:56.100Z,112.60
2018-11-11T02:36:24.662Z,111.50
2018-11-11T02:38:53.246Z,104.90
2018-11-11T02:41:21.800Z,103.37
2018-11-11T02:43:50.349Z,106.80
2018-11-11T02:46:19.135Z,105.07
2018-11-11T02:48:47.678Z,96.70
2018-11-11T02:51:16.221Z,102.43
2018-11-11T02:53:44.844Z,97.50
2018-11-11T02:56:13.412Z,104.43
2018-11-11T02:58:41.972Z,100.83
2018-11-11T03:01:10.499Z,112.73
2018-11-11T03:03:39.590Z,111.17
2018-11-11T03:06:08.131Z,109.50
2018-11-11T03:08:36.695Z,109.97
2018-11-11T03:11:05.671Z,105.53
2018-11-11T03:13:34.316Z,118.40
2018-11-11T03:16:03.238Z,110.00
2018-11-11T03:18:31.805Z,115.00
2018-11-11T03:21:00.331Z,115.23
2018-11-11T03:23:28.917Z,111.00
2018-11-11T03:25:57.502Z,115.53
2018-11-11T03:28:26.190Z,119.17
2018-11-11T03:30:54.731Z,120.50
2018-11-11T03:33:23.256Z,118.10
2018-11-11T03:35:51.816Z,124.77
2018-11-11T03:38:26.982Z,116.37
2018-11-11T03:40:55.582Z,123.97
2018-11-11T03:43:24.136Z,112.07
2018-11-11T03:45:52.667Z,122.10
2018-11-11T03:48:21.203Z,121.87
2018-11-11T03:50:49.755Z,130.03
2018-11-11T03:53:18.287Z,125.67
2018-11-11T03:55:46.799Z,124.33
2018-11-11T03:58:15.315Z,120.10
2018-11-11T04:00:43.831Z,124.17
2018-11-11T04:03:12.403Z,120.23
2018-11-11T04:05:40.961Z,118.17
2018-11-11T04:08:09.657Z,122.57
2018-11-11T04:10:38.192Z,117.70
2018-11-11T04:13:06.735Z,122.40
2018-11-11T04:15:35.307Z,116.80
2018-11-11T04:18:03.851Z,126.90
2018-11-11T04:20:32.366Z,119.23
2018-11-11T04:23:00.934Z,123.40
2018-11-11T04:25:29.464Z,120.03
2018-11-11T04:27:58.032Z,118.30
2018-11-11T04:30:26.595Z,124.20
2018-11-11T04:32:55.140Z,125.93
2018-11-11T04:35:23.711Z,123.77
2018-11-11T04:37:52.243Z,124.93
2018-11-11T04:40:20.789Z,116.30
2018-11-11T04:42:49.305Z,121.37
2018-11-11T04:45:17.852Z,119.23
2018-11-11T04:47:47.019Z,122.60
2018-11-11T04:50:16.827Z,119.43
2018-11-11T04:52:46.153Z,117.60
2018-11-11T04:55:14.747Z,121.23
2018-11-11T04:57:43.812Z,127.33
2018-11-11T05:00:13.632Z,127.70
2018-11-11T05:02:42.419Z,117.00
2018-11-11T05:05:12.221Z,128.53
2018-11-11T05:07:41.140Z,126.83
2018-11-11T05:10:10.457Z,122.77
2018-11-11T05:12:38.986Z,127.00
2018-11-11T05:15:08.773Z,134.20
2018-11-11T05:17:37.399Z,117.27
2018-11-11T05:20:07.225Z,118.43
2018-11-11T05:22:36.010Z,124.57
2018-11-11T05:25:05.200Z,128.83
2018-11-11T05:27:33.781Z,126.60
2018-11-11T05:30:02.313Z,127.27
2018-11-11T05:32:30.851Z,126.67
2018-11-11T05:34:59.411Z,123.80
2018-11-11T05:37:27.959Z,129.50
2018-11-11T05:39:57.292Z,127.60
2018-11-11T05:42:25.837Z,130.33
2018-11-11T05:44:54.394Z,129.17
2018-11-11T05:47:22.976Z,137.57
2018-11-11T05:49:51.538Z,147.60
2018-11-11T05:52:20.085Z,140.27
2018-11-11T05:54:48.629Z,141.83
2018-11-11T05:57:17.187Z,135.37
2018-11-11T05:59:45.698Z,133.93
2018-11-11T06:02:14.234Z,120.23
2018-11-11T06:04:42.758Z,124.30
2018-11-11T06:07:11.338Z,130.00
2018-11-11T06:09:39.859Z,135.07
2018-11-11T06:12:08.409Z,142.37
2018-11-11T06:14:36.949Z,137.83
2018-11-11T06:17:05.765Z,153.77
2018-11-11T06:19:34.279Z,146.13
2018-11-11T06:22:02.846Z,137.67
2018-11-11T06:24:31.370Z,142.63
2018-11-11T06:26:59.984Z,142.20
2018-11-11T06:29:28.522Z,148.13
2018-11-11T06:31:57.942Z,149.73
2018-11-11T06:34:26.469Z,132.40
2018-11-11T06:36:54.987Z,136.00
2018-11-11T06:39:23.523Z,140.13
2018-11-11T06:41:52.079Z,134.90
2018-11-11T06:44:20.630Z,132.73
2018-11-11T06:46:49.198Z,125.03
2018-11-11T06:49:17.841Z,127.00
2018-11-11T06:51:46.363Z,123.17
2018-11-11T06:54:14.958Z,119.97
2018-11-11T06:56:43.538Z,130.13
2018-11-11T06:59:12.088Z,114.67
2018-11-11T07:01:40.619Z,122.43
2018-11-11T07:04:09.138Z,119.43
2018-11-11T07:06:37.752Z,110.43
2018-11-11T07:09:07.224Z,123.13
2018-11-11T07:11:35.744Z,126.30
2018-11-11T07:14:04.337Z,123.33
2018-11-11T07:16:32.843Z,124.97
2018-11-11T07:19:01.373Z,115.60
2018-11-11T07:21:29.911Z,113.50
2018-11-11T07:23:58.860Z,119.80
2018-11-11T07:26:27.522Z,116.43
2018-11-11T07:28:56.078Z,124.87
2018-11-11T07:31:24.667Z,127.77
2018-11-11T07:33:53.172Z,115.90
2018-11-11T07:36:21.816Z,123.93
2018-11-11T07:38:50.384Z,117.70
2018-11-11T07:41:18.968Z,118.17
2018-11-11T07:43:47.483Z,113.90
2018-11-11T07:46:16.017Z,116.83
2018-11-11T07:48:44.705Z,102.77
2018-11-11T07:51:13.260Z,115.00
2018-11-11T07:53:41.814Z,107.57
2018-11-11T07:56:10.334Z,104.07
2018-11-11T07:58:38.936Z,105.87
2018-11-11T08:01:07.417Z,98.93
2018-11-11T08:03:35.949Z,106.37
2018-11-11T08:06:04.826Z,100.20
2018-11-11T08:08:33.483Z,116.17
2018-11-11T08:11:13.288Z,112.37
2018-11-11T08:13:41.866Z,103.03
2018-11-11T08:16:10.433Z,106.53
2018-11-11T08:18:39.005Z,106.50
2018-11-11T08:21:07.594Z,99.97
2018-11-11T08:23:36.205Z,98.27
2018-11-11T08:26:04.932Z,99.43
2018-11-11T08:28:33.482Z,104.57
2018-11-11T08:31:02.018Z,102.77
2018-11-11T08:33:30.537Z,101.27
2018-11-11T08:35:59.757Z,100.20
2018-11-11T08:38:28.311Z,90.97
2018-11-11T08:40:56.872Z,93.97
2018-11-11T08:43:25.391Z,92.40
2018-11-11T08:45:53.939Z,95.23
2018-11-11T08:48:22.580Z,97.43
2018-11-11T08:50:51.296Z,88.50
2018-11-11T08:53:19.848Z,95.17
2018-11-11T08:55:48.379Z,94.50
2018-11-11T08:58:16.954Z,92.77
2018-11-11T09:00:45.492Z,93.70
2018-11-11T09:03:14.033Z,100.63
2018-11-11T09:05:42.633Z,96.50
2018-11-11T09:08:11.252Z,90.67
2018-11-11T09:10:39.818Z,88.90
2018-11-11T09:13:08.395Z,90.60
2018-11-11T09:15:36.976Z,95.57
2018-11-11T09:18:05.790Z,92.27
2018-11-11T09:20:34.399Z,90.53
2018-11-11T09:23:03.019Z,85.70
2018-11-11T09:25:31.632Z,90.27
2018-11-11T09:28:00.800Z,80.80
2018-11-11T09:30:29.398Z,91.27
2018-11-11T09:32:57.902Z,92.70
2018-11-11T09:35:26.483Z,80.23
2018-11-11T09:37:55.110Z,84.60
2018-11-11T09:40:23.647Z,86.33
2018-11-11T09:42:52.235Z,85.73
2018-11-11T09:45:27.382Z,86.13
2018-11-11T09:47:56.011Z,84.70
2018-11-11T09:50:24.623Z,78.37
2018-11-11T09:52:53.221Z,75.27
2018-11-11T09:55:21.831Z,78.77
2018-11-11T09:57:50.487Z,80.13
2018-11-11T10:00:20.624Z,82.13
2018-11-11T10:02:55.999Z,85.80
2018-11-11T10:06:33.817Z,75.67
2018-11-11T10:09:07.584Z,81.30
2018-11-11T10:11:41.355Z,90.30
2018-11-11T10:14:18.073Z,86.03
2018-11-11T10:16:54.998Z,83.77
2018-11-11T10:20:00.638Z,78.97
2018-11-11T10:22:34.135Z,80.33
2018-11-11T10:25:38.013Z,82.03
2018-11-11T10:28:15.542Z,85.50
2018-11-11T10:30:47.875Z,80.57
2018-11-11T10:33:45.142Z,86.97
2018-11-11T10:36:20.588Z,89.13
2018-11-11T10:38:53.370Z,90.87
2018-11-11T10:41:32.373Z,90.83
2018-11-11T10:44:03.831Z,82.40
2018-11-11T10:46:44.288Z,86.00
2018-11-11T10:49:15.611Z,85.87
2018-11-11T10:51:44.283Z,91.53
2018-11-11T10:54:12.837Z,79.63
2018-11-11T10:56:41.396Z,80.37
2018-11-11T10:59:09.964Z,90.30
2018-11-11T11:01:43.970Z,83.83
2018-11-11T11:04:12.651Z,87.60
2018-11-11T11:06:47.627Z,85.33
2018-11-11T11:09:16.172Z,90.07
2018-11-11T11:11:45.089Z,92.53
2018-11-11T11:14:14.103Z,92.20
2018-11-11T11:16:42.688Z,103.10
2018-11-11T11:19:11.472Z,110.77
2018-11-11T11:21:40.023Z,92.47
2018-11-11T11:24:08.603Z,99.97
2018-11-11T11:26:37.151Z,100.07
2018-11-11T11:29:05.829Z,105.70
2018-11-11T11:31:34.467Z,108.53
2018-11-11T11:34:02.926Z,93.63
2018-11-11T11:36:31.443Z,96.47
2018-11-11T11:39:00.016Z,101.93
2018-11-11T11:41:28.660Z,93.00
2018-11-11T11:43:57.237Z,99.63
2018-11-11T11:46:25.971Z,98.70
2018-11-11T11:48:54.501Z,100.27
2018-11-11T11:51:23.133Z,93.77
2018-11-11T11:53:51.699Z,91.07
2018-11-11T11:56:20.250Z,95.93
2018-11-11T11:58:48.804Z,94.53
2018-11-11T12:01:17.405Z,97.23
2018-11-11T12:03:46.038Z,97.30
2018-11-11T12:06:14.747Z,93.50
2018-11-11T12:08:43.505Z,84.87
2018-11-11T12:11:11.942Z,97.83
2018-11-11T12:13:40.482Z,91.87
2018-11-11T12:16:09.018Z,98.70
2018-11-11T12:18:37.572Z,94.93
2018-11-11T12:21:06.323Z,101.63
2018-11-11T12:23:34.895Z,94.90
2018-11-11T12:26:04.201Z,97.43
2018-11-11T12:28:32.754Z,90.87
2018-11-11T12:31:01.971Z,94.80
2018-11-11T12:33:30.519Z,85.73
2018-11-11T12:35:59.410Z,86.40
2018-11-11T12:38:28.080Z,82.73
2018-11-11T12:40:56.676Z,82.27
2018-11-11T12:43:25.290Z,82.67
2018-11-11T12:45:53.966Z,83.93
2018-11-11T12:48:23.598Z,80.03
2018-11-11T12:50:52.173Z,78.87
2018-11-11T12:53:20.903Z,79.47
2018-11-11T12:55:49.529Z,83.90
2018-11-11T12:58:18.088Z,79.60
2018-11-11T13:00:46.639Z,80.27
2018-11-11T13:03:15.267Z,71.73
2018-11-11T13:05:43.812Z,73.87
2018-11-11T13:08:12.404Z,71.67
2018-11-11T13:10:40.998Z,73.37
2018-11-11T13:13:09.574Z,74.87
2018-11-11T13:15:38.143Z,74.23
2018-11-11T13:18:06.792Z,73.00
2018-11-11T13:20:35.366Z,76.37
2018-11-11T13:23:04.226Z,74.40
2018-11-11T13:25:32.700Z,78.30
2018-11-11T13:28:01.950Z,74.17
2018-11-11T13:30:30.550Z,75.47
2018-11-11T13:32:59.123Z,80.07
2018-11-11T13:35:27.720Z,77.03
2018-11-11T13:37:56.381Z,80.93
2018-11-11T13:40:24.903Z,83.07
2018-11-11T13:42:53.686Z,86.17
2018-11-11T13:45:23.175Z,90.57
2018-11-11T13:47:52.222Z,82.87
2018-11-11T13:50:22.945Z,88.20
2018-11-11T13:52:51.528Z,85.60
2018-11-11T13:55:20.888Z,86.07
2018-11-11T13:57:50.003Z,83.17
2018-11-11T14:00:20.994Z,84.63
2018-11-11T14:02:50.022Z,90.70
2018-11-11T14:05:18.666Z,83.70
2018-11-11T14:07:48.107Z,86.67
2018-11-11T14:10:17.222Z,89.07
2018-11-11T14:12:45.915Z,88.60
2018-11-11T14:15:17.091Z,87.23
2018-11-11T14:17:46.262Z,81.90
2018-11-11T14:20:16.349Z,86.37
2018-11-11T14:22:46.093Z,86.23
2018-11-11T14:25:17.400Z,88.33
2018-11-11T14:27:46.231Z,84.30
2018-11-11T14:30:17.952Z,84.10
2018-11-11T14:32:47.593Z,84.73
2018-11-11T14:35:16.087Z,86.87
2018-11-11T14:37:45.047Z,81.97
2018-11-11T14:40:17.660Z,83.50
2018-11-11T14:42:46.436Z,83.03
2018-11-11T14:45:15.848Z,87.87
2018-11-11T14:47:45.689Z,81.00
2018-11-11T14:50:15.227Z,81.40
2018-11-11T14:52:44.591Z,79.00
2018-11-11T14:55:15.753Z,80.53
2018-11-11T14:57:44.597Z,83.40
2018-11-11T15:00:46.257Z,78.77
2018-11-11T15:03:17.106Z,80.03
2018-11-11T15:05:46.089Z,82.33
2018-11-11T15:08:14.666Z,81.40
2018-11-11T15:10:43.556Z,79.73
2018-11-11T15:13:13.258Z,82.50
2018-11-11T15:15:41.895Z,90.60
2018-11-11T15:18:10.456Z,87.80
2018-11-11T15:20:40.078Z,86.67
2018-11-11T15:23:10.672Z,91.00
2018-11-11T15:25:39.833Z,87.00
2018-11-11T15:28:08.650Z,90.43
2018-11-11T15:30:38.189Z,90.03
2018-11-11T15:33:07.688Z,92.43
2018-11-11T15:35:36.499Z,83.57
2018-11-11T15:38:05.692Z,84.27
2018-11-11T15:40:35.778Z,85.23
2018-11-11T15:43:04.489Z,83.13
2018-11-11T15:45:34.093Z,85.73
2018-11-11T15:48:04.222Z,87.53
2018-11-11T15:50:34.221Z,81.83
2018-11-11T15:53:04.565Z,85.03
2018-11-11T15:55:34.486Z,82.80
2018-11-11T15:58:03.548Z,87.87
2018-11-11T16:00:33.561Z,88.03
2018-11-11T16:03:02.134Z,80.37
2018-11-11T16:05:30.766Z,78.30
2018-11-11T16:08:00.148Z,83.23
2018-11-11T16:10:30.054Z,83.03
2018-11-11T16:12:58.772Z,82.73
2018-11-11T16:15:29.116Z,76.63
2018-11-11T16:17:59.446Z,71.20
2018-11-11T16:20:28.966Z,77.83
2018-11-11T16:22:58.604Z,72.07
2018-11-11T16:25:27.415Z,82.20
2018-11-11T16:27:55.953Z,77.93
2018-11-11T16:30:25.899Z,74.17
2018-11-11T16:32:55.405Z,69.93
2018-11-11T16:35:25.123Z,73.93
2018-11-11T16:37:53.767Z,75.63
2018-11-11T16:40:24.684Z,69.73
2018-11-11T16:42:53.767Z,65.63
2018-11-11T16:45:23.662Z,71.67
2018-11-11T16:47:52.607Z,68.90
2018-11-11T16:50:23.760Z,57.93
2018-11-11T16:52:53.970Z,60.23
2018-11-11T16:55:24.271Z,56.43
2018-11-11T16:57:53.022Z,55.93
2018-11-11T17:00:23.662Z,56.43
2018-11-11T17:02:52.794Z,60.80
2018-11-11T17:05:26.760Z,58.27
2018-11-11T17:07:55.571Z,61.43
2018-11-11T17:10:26.104Z,60.07
2018-11-11T17:12:55.698Z,57.17
2018-11-11T17:15:26.662Z,60.30
2018-11-11T17:17:55.214Z,58.13
2018-11-11T17:20:24.674Z,55.33
2018-11-11T17:22:54.440Z,60.10
2018-11-11T17:25:23.948Z,56.87
2018-11-11T17:27:52.491Z,59.70
2018-11-11T17:30:22.605Z,58.17
2018-11-11T17:32:51.814Z,58.70
2018-11-11T17:35:20.390Z,58.23
2018-11-11T17:37:49.177Z,54.63
2018-11-11T17:40:28.292Z,55.07
2018-11-11T17:42:58.306Z,59.73
2018-11-11T17:45:26.873Z,60.87
2018-11-11T17:47:55.956Z,51.60
2018-11-11T17:50:27.024Z,54.33
2018-11-11T17:52:55.849Z,51.40
2018-11-11T17:55:25.321Z,53.40
2018-11-11T17:57:54.028Z,49.37
2018-11-11T18:00:24.111Z,55.07
2018-11-11T18:02:53.132Z,53.97
2018-11-11T18:05:22.723Z,59.67
2018-11-11T18:07:51.313Z,55.67
2018-11-11T18:10:21.064Z,56.23
2018-11-11T18:12:49.604Z,56.43
2018-11-11T18:15:20.834Z,54.17
2018-11-11T18:17:49.416Z,53.87
2018-11-11T18:20:21.476Z,53.33
2018-11-11T18:22:51.004Z,56.27
2018-11-11T18:25:19.775Z,54.97
2018-11-11T18:27:48.386Z,54.07
2018-11-11T18:30:20.749Z,55.20
2018-11-11T18:32:49.594Z,51.33
2018-11-11T18:35:18.928Z,52.33
2018-11-11T18:37:47.732Z,52.00
2018-11-11T18:40:19.470Z,54.93
2018-11-11T18:42:48.287Z,54.60
2018-11-11T18:45:22.442Z,55.20
2018-11-11T18:47:51.733Z,52.87
2018-11-11T18:50:21.825Z,53.87
2018-11-11T18:52:51.049Z,58.53
2018-11-11T18:55:19.628Z,55.20
2018-11-11T18:57:48.310Z,56.93
2018-11-11T19:00:22.140Z,52.50
2018-11-11T19:02:51.804Z,50.03
2018-11-11T19:05:21.201Z,55.67
2018-11-11T19:07:50.178Z,54.10
2018-11-11T19:10:21.210Z,52.03
2018-11-11T19:12:50.971Z,50.13
2018-11-11T19:15:20.246Z,54.80
2018-11-11T19:17:49.555Z,52.00
2018-11-11T19:20:19.272Z,54.50
2018-11-11T19:22:47.965Z,48.73
2018-11-11T19:25:19.194Z,47.60
2018-11-11T19:27:49.103Z,49.33
2018-11-11T19:30:18.842Z,43.53
2018-11-11T19:32:47.938Z,42.17
2018-11-11T19:35:17.624Z,43.23
2018-11-11T19:37:47.482Z,41.57
2018-11-11T19:40:17.611Z,38.87
2018-11-11T19:42:46.572Z,38.13
2018-11-11T19:45:16.582Z,40.17
2018-11-11T19:47:45.192Z,38.27
2018-11-11T19:50:15.225Z,44.30
2018-11-11T19:52:45.245Z,37.43
2018-11-11T19:55:14.532Z,39.17
2018-11-11T19:57:43.530Z,37.93
2018-11-11T20:00:14.611Z,35.83
2018-11-11T20:02:44.865Z,36.27
2018-11-11T20:05:14.304Z,36.33
2018-11-11T20:07:44.257Z,35.37
2018-11-11T20:10:13.906Z,37.30
2018-11-11T20:12:42.565Z,37.47
2018-11-11T20:15:13.340Z,34.07
2018-11-11T20:17:42.228Z,34.57
2018-11-11T20:20:19.479Z,33.93
2018-11-11T20:22:48.311Z,36.40
2018-11-11T20:25:17.723Z,33.77
2018-11-11T20:27:46.509Z,29.40
2018-11-11T20:30:20.460Z,30.47
2018-11-11T20:32:49.243Z,35.17
2018-11-11T20:35:19.302Z,32.27
2018-11-11T20:37:47.847Z,29.00
2018-11-11T20:40:17.821Z,26.17
2018-11-11T20:42:47.012Z,30.23
2018-11-11T20:45:16.737Z,30.53
2018-11-11T20:47:45.813Z,28.40
2018-11-11T20:50:17.336Z,26.13
2018-11-11T20:52:47.089Z,31.73
2018-11-11T20:55:16.324Z,25.90
2018-11-11T20:57:44.937Z,26.90
2018-11-11T21:00:15.472Z,29.77
2018-11-11T21:02:44.005Z,28.43
2018-11-11T21:05:14.007Z,27.73
2018-11-11T21:07:42.793Z,28.33
2018-11-11T21:10:13.640Z,28.97
2018-11-11T21:12:42.264Z,27.93
2018-11-11T21:15:13.264Z,29.53
2018-11-11T21:17:42.275Z,27.03
2018-11-11T21:20:12.488Z,28.77
2018-11-11T21:22:41.485Z,26.53
2018-11-11T21:25:10.390Z,30.27
2018-11-11T21:27:39.885Z,27.80
2018-11-11T21:30:12.283Z,28.40
2018-11-11T21:32:40.942Z,29.97
2018-11-11T21:35:10.056Z,31.50
2018-11-11T21:37:38.773Z,33.67
2018-11-11T21:40:09.867Z,30.40
2018-11-11T21:42:38.988Z,29.33
2018-11-11T21:45:08.971Z,29.93
2018-11-11T21:47:37.630Z,31.97
2018-11-11T21:50:07.901Z,31.00
2018-11-11T21:52:36.537Z,34.37
2018-11-11T21:55:06.170Z,31.40
2018-11-11T21:57:34.810Z,35.97
2018-11-11T22:00:03.458Z,33.17
2018-11-11T22:02:32.091Z,37.33
2018-11-11T22:05:00.672Z,29.27
2018-11-11T22:07:29.421Z,32.50
2018-11-11T22:09:58.270Z,32.43
2018-11-11T22:12:26.847Z,31.40
2018-11-11T22:14:55.379Z,36.70
2018-11-11T22:17:23.932Z,34.20
2018-11-11T22:19:52.494Z,34.33
2018-11-11T22:22:21.134Z,35.87
2018-11-11T22:24:49.600Z,35.23
2018-11-11T22:27:18.152Z,34.60
2018-11-11T22:29:46.736Z,37.73
2018-11-11T22:32:15.367Z,33.33
2018-11-11T22:34:43.952Z,34.40
2018-11-11T22:37:12.466Z,34.57
2018-11-11T22:39:41.084Z,30.23
2018-11-11T22:42:09.657Z,31.97
2018-11-11T22:44:38.284Z,33.70
2018-11-11T22:47:06.943Z,37.57
2018-11-11T22:49:35.496Z,36.43
2018-11-11T22:52:04.351Z,35.73
2018-11-11T22:54:32.911Z,31.60
2018-11-11T22:57:01.425Z,34.93
2018-11-11T22:59:29.973Z,30.93
2018-11-11T23:01:58.544Z,35.13
2018-11-11T23:04:27.180Z,38.93
2018-11-11T23:06:55.721Z,32.67
2018-11-11T23:09:24.267Z,32.53
2018-11-11T23:11:52.847Z,37.10
2018-11-11T23:14:21.427Z,38.93
2018-11-11T23:16:49.978Z,32.37
2018-11-11T23:19:18.527Z,32.87
2018-11-11T23:21:47.118Z,33.67
2018-11-11T23:24:15.670Z,35.17
2018-11-11T23:26:44.715Z,32.53
2018-11-11T23:29:13.357Z,32.17
2018-11-11T23:31:41.961Z,33.50
2018-11-11T23:34:10.796Z,30.87
2018-11-11T23:36:39.373Z,32.17
2018-11-11T23:39:09.084Z,31.57
2018-11-11T23:41:37.982Z,33.00
2018-11-11T23:44:07.694Z,34.83
2018-11-11T23:46:36.662Z,30.57
2018-11-11T23:49:05.626Z,28.53
2018-11-11T23:51:34.217Z,31.77
2018-11-11T23:54:02.871Z,35.43
2018-11-11T23:56:31.403Z,33.43
2018-11-11T23:58:59.907Z,29.47
